Flight Track Log - Related Links

Times and Time Zones

All times are in EDT time to prevent confusion due to time zone crossing. See the FLG3800 flight status page for this flight to view local times or setup timezone preferences in your user account.

Time Position Orientation Groundspeed Altitude Reporting Facility
EDT Latitude Longitude Course Direction KTS MPH feet Rate Location/Type
Tue 08:07:07 AM 42.1706 -85.3978 108° East 228 262 5,900  Level Chicago Center
Tue 08:08:00 AM 42.1640 -85.2335 107° East  Level FlightAware Approximate
Tue 08:08:09 AM 42.1531 -85.2911 102° East 273 314 8,600  Level Chicago Center
Tue 08:09:00 AM 42.1399 -85.1304 107° East  Level FlightAware Approximate
Tue 08:09:10 AM 42.1344 -85.1822 103° East 294 338 9,000  Level Chicago Center
Tue 08:10:00 AM 42.1157 -85.0274 108° East  Level FlightAware Approximate
Tue 08:10:12 AM 42.1164 -85.0758 103° East 293 337 9,000  Level Chicago Center
Tue 08:11:00 AM 42.0933 -84.9325 108° East  Level FlightAware Approximate
Tue 08:11:14 AM 42.0992 -84.9742 103° East 283 326 9,000  Level Chicago Center
Tue 08:12:00 AM 42.0709 -84.8377 108° East  Level FlightAware Approximate
Tue 08:12:16 AM 42.0806 -84.8719 104° East 281 323 9,000  Level Chicago Center
Tue 08:13:17 AM 42.0606 -84.7656 104° East 288 331 9,000 -49 Level Chicago Center
Tue 08:14:19 AM 42.0044 -84.6556 124° Southeast 294 338 8,900 -48 Descending Chicago Center
Tue 08:15:21 AM 41.9572 -84.5675 126° Southeast 291 335 8,900 -194 Level Chicago Center
Tue 08:16:23 AM 41.9111 -84.4822 126° Southeast 284 327 8,500 -732 Descending Chicago Center
Tue 08:17:24 AM 41.8653 -84.3964 126° Southeast 283 326 7,400 -981 Descending Chicago Center
Tue 08:18:07 AM 41.8297 -84.3317 126° Southeast 280 322 6,800 -796 Descending Cleveland Center
Tue 08:19:02 AM 41.7886 -84.2567 126° Southeast 278 320 6,100 -417 Descending Cleveland Center
Tue 08:20:02 AM 41.7792 -84.1586 97° East 298 343 6,000  Descending Cleveland Center
Tue 08:20:45 AM 41.8083 -84.0906 60° Northeast 290 334 6,100  Climbing Cleveland Center
Tue 08:21:40 AM 41.8442 -84.0117 59° Northeast 278 320 6,000  Descending Cleveland Center
Tue 08:22:41 AM 41.8986 -83.9281 49° Northeast 288 331 6,100  Climbing Cleveland Center
Tue 08:23:48 AM 41.9656 -83.8533 40° Northeast 289 333 6,000 -269 Descending Cleveland Center
Tue 08:24:55 AM 42.0325 -83.7703 43° Northeast 289 333 5,500 -469 Descending Cleveland Center
Tue 08:25:56 AM 42.0925 -83.7033 40° Northeast 274 315 5,000 -198 Descending Cleveland Center
Tue 08:26:56 AM 42.1528 -83.6389 38° Northeast 273 314 5,100 50 Climbing Cleveland Center
Tue 08:27:57 AM 42.2108 -83.5717 41° Northeast 280 322 5,100 -49 Level Cleveland Center
Tue 08:28:58 AM 42.2669 -83.5014 43° Northeast 254 292 5,000 -49 Descending Cleveland Center
Tue 08:29:59 AM 42.3283 -83.4592 27° Northeast 242 278 5,000 -49 Level Cleveland Center
Tue 08:31:00 AM 42.3897 -83.4256 22° Northeast 237 273 4,900 -443 Descending Cleveland Center
Tue 08:32:01 AM 42.4103 -83.3506 70° East 232 267 4,100 -738 Descending Cleveland Center
Tue 08:33:02 AM 42.3719 -83.2897 130° Southeast 206 237 3,400 -885 Descending Cleveland Center
Tue 08:34:03 AM 42.3217 -83.2989 188° South 189 217 2,300 -1,082 Descending Cleveland Center

Login

Don't have an account? Register now (free) for customized features, flight alerts, and more!